createdAt,value
2023-04-14T00:00:38.555Z,87.31
2023-04-14T00:01:40.056Z,87.60
2023-04-14T00:02:41.798Z,87.81
2023-04-14T00:03:43.748Z,88.17
2023-04-14T00:04:51.984Z,88.19
2023-04-14T00:05:53.752Z,88.06
2023-04-14T00:06:58.540Z,87.31
2023-04-14T00:08:00.726Z,87.66
2023-04-14T00:09:02.506Z,87.87
2023-04-14T00:10:04.566Z,87.72
2023-04-14T00:11:05.996Z,87.73
2023-04-14T00:12:07.524Z,87.95
2023-04-14T00:13:08.955Z,87.67
2023-04-14T00:14:10.991Z,87.71
2023-04-14T00:15:15.865Z,87.40
2023-04-14T00:16:18.724Z,87.36
2023-04-14T00:17:20.750Z,87.05
2023-04-14T00:18:22.228Z,87.14
2023-04-14T00:19:24.867Z,87.36
2023-04-14T00:20:26.494Z,87.09
2023-04-14T00:21:28.091Z,86.88
2023-04-14T00:22:30.190Z,86.57
2023-04-14T00:23:31.658Z,86.97
2023-04-14T00:24:41.257Z,86.89
2023-04-14T00:25:42.710Z,87.45
2023-04-14T00:26:46.463Z,87.99
2023-04-14T00:27:47.910Z,87.64
2023-04-14T00:28:50.771Z,87.62
2023-04-14T00:29:52.202Z,87.98
2023-04-14T00:30:56.342Z,88.15
2023-04-14T00:32:01.111Z,88.00
2023-04-14T00:33:05.989Z,87.69
2023-04-14T00:34:07.448Z,87.38
2023-04-14T00:35:09.182Z,87.07
2023-04-14T00:36:11.405Z,86.82
2023-04-14T00:37:12.902Z,87.19
2023-04-14T00:38:17.598Z,87.29
2023-04-14T00:39:22.599Z,87.43
2023-04-14T00:40:27.770Z,87.08
2023-04-14T00:41:32.824Z,87.16
2023-04-14T00:42:41.460Z,87.25
2023-04-14T00:43:42.902Z,87.24
2023-04-14T00:44:51.479Z,87.33
2023-04-14T00:45:53.148Z,87.56
2023-04-14T00:46:57.919Z,87.74
2023-04-14T00:48:02.114Z,87.47
2023-04-14T00:49:05.655Z,87.29
2023-04-14T00:50:09.338Z,87.17
2023-04-14T00:51:11.806Z,86.83
2023-04-14T00:52:15.788Z,86.66
2023-04-14T00:53:17.347Z,86.30
2023-04-14T00:54:20.313Z,86.23
2023-04-14T00:55:21.954Z,86.42
2023-04-14T00:56:26.423Z,86.34
2023-04-14T00:57:28.359Z,86.20
2023-04-14T00:58:30.842Z,86.64
2023-04-14T00:59:32.312Z,86.64
2023-04-14T01:00:35.265Z,86.22
2023-04-14T01:01:37.355Z,86.27
2023-04-14T01:02:39.832Z,86.55
2023-04-14T01:03:44.871Z,86.61
2023-04-14T01:04:54.313Z,86.99
2023-04-14T01:05:56.958Z,86.96
2023-04-14T01:06:58.689Z,86.68
2023-04-14T01:08:01.118Z,87.19
2023-04-14T01:09:03.526Z,87.23
2023-04-14T01:10:05.935Z,87.14
2023-04-14T01:11:21.955Z,86.63
2023-04-14T01:12:41.970Z,86.62
2023-04-14T01:14:07.016Z,86.06
2023-04-14T01:15:12.616Z,86.07
2023-04-14T01:16:22.862Z,86.06
2023-04-14T01:17:44.951Z,85.97
2023-04-14T01:18:56.067Z,86.50
2023-04-14T01:20:03.837Z,86.55
2023-04-14T01:21:09.615Z,86.63
2023-04-14T01:22:12.653Z,86.59
2023-04-14T01:23:30.500Z,86.60
2023-04-14T01:24:41.565Z,86.56
2023-04-14T01:25:58.110Z,86.04
2023-04-14T01:27:12.077Z,86.05
2023-04-14T01:28:26.350Z,86.17
2023-04-14T01:29:35.695Z,86.20
2023-04-14T01:30:55.800Z,86.10
2023-04-14T01:32:05.537Z,86.66
2023-04-14T01:33:12.589Z,87.02
2023-04-14T01:34:17.629Z,87.02
2023-04-14T01:35:21.137Z,86.89
2023-04-14T01:36:27.137Z,86.82
2023-04-14T01:37:34.784Z,86.65
2023-04-14T01:38:37.619Z,86.31
2023-04-14T01:39:41.881Z,86.44
2023-04-14T01:40:48.943Z,86.38
2023-04-14T01:41:54.846Z,86.38
2023-04-14T01:43:00.760Z,86.36
2023-04-14T01:44:03.056Z,86.23
2023-04-14T01:45:11.093Z,86.26
2023-04-14T01:46:16.037Z,85.86
2023-04-14T01:47:25.807Z,85.85
2023-04-14T01:48:30.324Z,85.70
2023-04-14T01:49:36.814Z,85.76
2023-04-14T01:50:41.321Z,85.78
2023-04-14T01:51:44.173Z,85.72
2023-04-14T01:52:52.882Z,85.87
2023-04-14T01:53:56.835Z,85.66
2023-04-14T01:55:00.204Z,85.56
2023-04-14T01:56:02.650Z,85.82
2023-04-14T01:57:06.978Z,85.72
2023-04-14T01:58:10.809Z,85.60
2023-04-14T01:59:16.253Z,85.70
2023-04-14T02:00:18.930Z,86.07
2023-04-14T02:01:21.037Z,86.24
2023-04-14T02:02:24.102Z,86.09
2023-04-14T02:03:27.152Z,85.80
2023-04-14T02:04:37.612Z,85.90
2023-04-14T02:05:41.667Z,85.96
2023-04-14T02:06:46.177Z,85.58
2023-04-14T02:07:48.250Z,86.35
2023-04-14T02:08:51.018Z,86.93
2023-04-14T02:09:53.784Z,86.96
2023-04-14T02:10:57.281Z,87.18
2023-04-14T02:12:00.870Z,86.92
2023-04-14T02:13:03.302Z,86.61
2023-04-14T02:14:06.582Z,87.06
2023-04-14T02:15:12.547Z,87.27
2023-04-14T02:16:15.817Z,87.54
2023-04-14T02:17:26.815Z,87.77
2023-04-14T02:18:30.079Z,87.68
2023-04-14T02:19:32.770Z,87.57
2023-04-14T02:20:42.647Z,87.39
2023-04-14T02:21:50.815Z,87.17
2023-04-14T02:23:56.023Z,86.96
2023-04-14T02:24:57.544Z,87.19
2023-04-14T02:26:05.656Z,86.97
2023-04-14T02:27:19.956Z,86.70
2023-04-14T02:28:25.611Z,87.14
2023-04-14T02:29:29.102Z,87.15
2023-04-14T02:30:33.001Z,86.98
2023-04-14T02:31:36.620Z,87.17
2023-04-14T02:32:40.793Z,87.11
2023-04-14T02:33:43.929Z,86.86
2023-04-14T02:34:55.574Z,87.28
2023-04-14T02:36:09.638Z,86.88
2023-04-14T02:37:16.379Z,86.85
2023-04-14T02:38:32.832Z,86.48
2023-04-14T02:39:38.804Z,86.99
2023-04-14T02:40:41.508Z,87.08
2023-04-14T02:41:46.077Z,87.21
2023-04-14T02:42:51.164Z,87.36
2023-04-14T02:44:05.672Z,87.18
2023-04-14T02:45:12.095Z,87.97
2023-04-14T02:46:16.672Z,88.15
2023-04-14T02:47:27.181Z,87.82
2023-04-14T02:48:33.978Z,87.61
2023-04-14T02:49:37.098Z,87.70
2023-04-14T02:50:41.047Z,87.31
2023-04-14T02:51:50.457Z,88.05
2023-04-14T02:52:53.079Z,87.61
2023-04-14T02:53:58.054Z,87.70
2023-04-14T02:55:15.879Z,87.48
2023-04-14T02:56:19.154Z,87.63
2023-04-14T02:57:22.153Z,87.33
2023-04-14T02:58:30.009Z,87.03
2023-04-14T02:59:32.345Z,86.91
2023-04-14T03:00:40.579Z,87.22
2023-04-14T03:01:43.520Z,86.95
2023-04-14T03:02:49.658Z,86.91
2023-04-14T03:03:53.230Z,86.93
2023-04-14T03:04:56.361Z,86.89
2023-04-14T03:06:18.906Z,87.04
2023-04-14T03:07:21.922Z,87.22
2023-04-14T03:08:24.140Z,87.23
2023-04-14T03:09:26.918Z,87.39
2023-04-14T03:10:28.605Z,86.92
2023-04-14T03:11:32.163Z,86.92
2023-04-14T03:12:35.751Z,86.92
2023-04-14T03:13:38.322Z,87.43
2023-04-14T03:14:41.039Z,87.63
2023-04-14T03:15:43.835Z,87.67
2023-04-14T03:16:46.501Z,87.27
2023-04-14T03:17:54.104Z,87.00
2023-04-14T03:18:57.270Z,87.15
2023-04-14T03:20:02.988Z,87.02
2023-04-14T03:21:06.128Z,87.03
2023-04-14T03:22:08.951Z,86.92
2023-04-14T03:23:12.404Z,86.83
2023-04-14T03:24:28.646Z,87.51
2023-04-14T03:25:32.508Z,88.09
2023-04-14T03:26:37.133Z,87.85
2023-04-14T03:27:40.546Z,87.25
2023-04-14T03:28:42.846Z,87.46
2023-04-14T03:29:47.408Z,87.59
2023-04-14T03:30:51.069Z,87.23
2023-04-14T03:31:55.676Z,87.42
2023-04-14T03:33:04.241Z,87.68
2023-04-14T03:34:06.934Z,87.44
2023-04-14T03:35:18.742Z,87.27
2023-04-14T03:36:21.265Z,87.17
2023-04-14T03:37:24.833Z,86.85
2023-04-14T03:38:27.841Z,87.00
2023-04-14T03:39:32.777Z,87.16
2023-04-14T03:40:40.459Z,87.78
2023-04-14T03:41:51.725Z,88.26
2023-04-14T03:42:58.204Z,88.12
2023-04-14T03:44:01.448Z,88.37
2023-04-14T03:45:05.184Z,88.24
2023-04-14T03:46:11.003Z,88.36
2023-04-14T03:47:15.849Z,88.50
2023-04-14T03:48:18.743Z,88.21
2023-04-14T03:49:25.635Z,87.87
2023-04-14T03:50:31.427Z,87.78
2023-04-14T03:51:34.256Z,88.15
2023-04-14T03:52:38.022Z,87.77
2023-04-14T03:53:43.160Z,87.26
2023-04-14T03:54:45.885Z,87.40
2023-04-14T03:55:49.870Z,87.47
2023-04-14T03:56:56.181Z,87.48
2023-04-14T03:57:59.849Z,87.88
2023-04-14T03:59:03.086Z,88.42
2023-04-14T04:00:09.320Z,87.99
2023-04-14T04:01:21.269Z,88.39
2023-04-14T04:02:24.015Z,88.37
2023-04-14T04:03:26.984Z,88.66
2023-04-14T04:04:30.110Z,89.01
2023-04-14T04:05:33.856Z,88.87
2023-04-14T04:06:37.187Z,88.50
2023-04-14T04:07:40.592Z,88.75
2023-04-14T04:08:42.610Z,88.96
2023-04-14T04:09:46.502Z,88.91
2023-04-14T04:10:48.815Z,89.01
2023-04-14T04:11:52.599Z,88.83
2023-04-14T04:12:55.032Z,88.61
2023-04-14T04:13:57.174Z,88.81
2023-04-14T04:14:58.924Z,89.16
2023-04-14T04:16:05.723Z,89.08
2023-04-14T04:17:07.913Z,88.78
2023-04-14T04:18:11.111Z,88.66
2023-04-14T04:19:15.410Z,88.87
2023-04-14T04:20:18.767Z,88.61
2023-04-14T04:21:23.042Z,88.37
2023-04-14T04:22:27.082Z,88.33
2023-04-14T04:23:32.143Z,88.40
2023-04-14T04:24:39.012Z,88.08
2023-04-14T04:25:44.967Z,88.95
2023-04-14T04:26:55.854Z,88.50
2023-04-14T04:27:59.013Z,88.21
2023-04-14T04:29:01.527Z,88.14
2023-04-14T04:30:09.537Z,88.54
2023-04-14T04:31:14.544Z,89.06
2023-04-14T04:32:17.107Z,88.84
2023-04-14T04:33:23.024Z,88.58
2023-04-14T04:34:26.369Z,88.22
2023-04-14T04:37:48.510Z,87.92
2023-04-14T04:38:51.303Z,88.22
2023-04-14T04:39:52.831Z,88.55
2023-04-14T04:40:55.044Z,88.47
2023-04-14T04:42:05.327Z,88.85
2023-04-14T04:43:06.841Z,88.95
2023-04-14T04:44:08.788Z,88.66
2023-04-14T04:45:11.291Z,88.60
2023-04-14T04:46:14.033Z,88.48
2023-04-14T04:47:17.295Z,88.78
2023-04-14T04:48:21.801Z,88.94
2023-04-14T04:49:24.032Z,88.94
2023-04-14T04:50:27.425Z,88.95
2023-04-14T04:51:28.964Z,89.00
2023-04-14T04:52:31.932Z,88.79
2023-04-14T04:53:33.599Z,88.59
2023-04-14T04:54:35.810Z,88.66
2023-04-14T04:55:37.347Z,89.15
2023-04-14T04:56:42.374Z,88.98
2023-04-14T04:57:46.719Z,89.12
2023-04-14T04:58:48.710Z,89.46
2023-04-14T04:59:50.956Z,88.89
2023-04-14T05:00:54.937Z,89.55
2023-04-14T05:01:56.745Z,88.86
2023-04-14T05:03:00.301Z,88.71
2023-04-14T05:04:02.065Z,88.81
2023-04-14T05:05:04.193Z,88.60
2023-04-14T05:06:06.140Z,88.57
2023-04-14T05:07:07.808Z,88.18
2023-04-14T05:08:13.794Z,88.69
2023-04-14T05:09:16.656Z,89.20
2023-04-14T05:10:18.194Z,89.77
2023-04-14T05:11:20.448Z,90.16
2023-04-14T05:12:22.524Z,90.87
2023-04-14T05:13:26.967Z,91.06
2023-04-14T05:14:28.867Z,90.38
2023-04-14T05:15:30.870Z,90.00
2023-04-14T05:16:36.133Z,89.93
2023-04-14T05:17:39.068Z,90.19
2023-04-14T05:18:41.975Z,90.78
2023-04-14T05:19:43.521Z,91.06
2023-04-14T05:20:45.976Z,91.09
2023-04-14T05:21:47.443Z,90.88
2023-04-14T05:22:48.854Z,90.72
2023-04-14T05:23:51.116Z,91.02
2023-04-14T05:24:52.844Z,91.16
2023-04-14T05:26:22.377Z,91.24
2023-04-14T05:27:24.958Z,91.56
2023-04-14T05:28:29.857Z,91.81
2023-04-14T05:29:31.474Z,91.76
2023-04-14T05:30:32.887Z,91.83
2023-04-14T05:31:35.038Z,91.31
2023-04-14T05:32:36.524Z,91.49
2023-04-14T05:33:38.867Z,91.73
2023-04-14T05:34:41.745Z,91.89
2023-04-14T05:35:46.404Z,91.78
2023-04-14T05:36:47.914Z,91.70
2023-04-14T05:37:51.905Z,91.68
2023-04-14T05:38:54.634Z,91.28
2023-04-14T05:39:56.564Z,90.87
2023-04-14T05:40:57.992Z,91.21
2023-04-14T05:42:03.514Z,91.09
2023-04-14T05:43:05.931Z,90.58
2023-04-14T05:44:07.340Z,90.69
2023-04-14T05:45:10.139Z,91.37
2023-04-14T05:46:11.650Z,91.56
2023-04-14T05:47:13.573Z,92.12
2023-04-14T05:48:17.406Z,92.73
2023-04-14T05:49:26.219Z,93.35
2023-04-14T05:50:27.739Z,93.30
2023-04-14T05:51:31.756Z,93.39
2023-04-14T05:52:33.304Z,94.01
2023-04-14T05:53:36.361Z,94.61
2023-04-14T05:54:40.457Z,94.91
2023-04-14T05:55:42.834Z,95.06
2023-04-14T05:56:47.853Z,95.04
2023-04-14T05:57:49.934Z,95.21
2023-04-14T05:58:55.949Z,95.75
2023-04-14T05:59:58.432Z,96.11
2023-04-14T06:01:01.105Z,96.15
2023-04-14T06:02:06.617Z,96.16
2023-04-14T06:03:08.995Z,96.28
2023-04-14T06:04:12.120Z,96.67
2023-04-14T06:05:18.132Z,97.32
2023-04-14T06:06:20.854Z,97.72
2023-04-14T06:07:22.306Z,97.93
2023-04-14T06:08:26.051Z,97.92
2023-04-14T06:09:27.576Z,98.19
2023-04-14T06:10:29.397Z,97.84
2023-04-14T06:11:31.929Z,97.77
2023-04-14T06:12:35.106Z,97.55
2023-04-14T06:13:37.300Z,97.53
2023-04-14T06:14:40.071Z,97.77
2023-04-14T06:15:41.627Z,97.23
2023-04-14T06:16:52.240Z,96.99
2023-04-14T06:19:45.889Z,97.97
2023-04-14T06:20:47.291Z,98.40
2023-04-14T06:21:48.902Z,98.89
2023-04-14T06:22:51.400Z,99.14
2023-04-14T06:23:52.844Z,99.37
2023-04-14T06:24:59.581Z,99.31
2023-04-14T06:26:01.543Z,99.30
2023-04-14T06:27:06.645Z,99.25
2023-04-14T06:28:10.778Z,99.35
2023-04-14T06:29:12.191Z,99.03
2023-04-14T06:30:16.701Z,98.99
2023-04-14T06:31:23.346Z,99.33
2023-04-14T06:32:31.523Z,99.32
2023-04-14T06:33:33.067Z,99.29
2023-04-14T06:34:37.983Z,99.27
2023-04-14T06:35:39.949Z,99.18
2023-04-14T06:36:45.249Z,98.62
2023-04-14T06:37:46.894Z,98.22
2023-04-14T06:38:51.288Z,98.70
2023-04-14T06:39:52.758Z,98.80
2023-04-14T06:40:54.664Z,98.29
2023-04-14T06:41:57.293Z,98.51
2023-04-14T06:43:01.471Z,98.54
2023-04-14T06:44:03.253Z,98.37
2023-04-14T06:45:06.250Z,98.19
2023-04-14T06:46:07.739Z,97.97
2023-04-14T06:47:10.195Z,98.06
2023-04-14T06:48:16.376Z,98.50
2023-04-14T06:49:19.988Z,98.47
2023-04-14T06:50:21.444Z,98.28
2023-04-14T06:51:23.358Z,98.46
2023-04-14T06:52:25.543Z,98.58
2023-04-14T06:53:27.613Z,99.07
2023-04-14T06:54:31.929Z,99.09
2023-04-14T06:55:35.705Z,99.20
2023-04-14T06:56:37.131Z,99.11
2023-04-14T06:57:41.833Z,99.32
2023-04-14T06:58:51.287Z,99.14
2023-04-14T06:59:52.903Z,99.32
2023-04-14T07:00:58.801Z,99.57
2023-04-14T07:02:01.109Z,99.98
2023-04-14T07:03:05.583Z,100.00
2023-04-14T07:04:11.467Z,100.00
2023-04-14T07:05:14.389Z,100.00
2023-04-14T07:06:20.469Z,100.00
2023-04-14T07:07:22.009Z,100.00
2023-04-14T07:08:23.883Z,100.00
2023-04-14T07:09:26.338Z,100.00
2023-04-14T07:10:27.839Z,100.00
2023-04-14T07:11:33.626Z,100.00
2023-04-14T07:12:39.088Z,100.00
2023-04-14T07:13:41.903Z,100.00
2023-04-14T07:14:52.872Z,100.00
2023-04-14T07:15:55.255Z,100.00
2023-04-14T07:16:57.335Z,100.00
2023-04-14T07:18:00.025Z,100.00
2023-04-14T07:19:03.704Z,100.00
2023-04-14T07:20:06.527Z,100.00
2023-04-14T07:21:08.042Z,100.00
2023-04-14T07:22:12.921Z,99.70
2023-04-14T07:23:17.618Z,99.30
2023-04-14T07:24:21.186Z,99.09
2023-04-14T07:25:23.055Z,98.72
2023-04-14T07:26:25.955Z,98.92
2023-04-14T07:27:29.024Z,98.88
2023-04-14T07:28:32.533Z,98.82
2023-04-14T07:29:35.457Z,98.26
2023-04-14T07:30:41.310Z,97.98
2023-04-14T07:31:43.360Z,97.58
2023-04-14T07:32:45.817Z,97.18
2023-04-14T07:33:47.441Z,96.55
2023-04-14T07:34:50.748Z,96.42
2023-04-14T07:36:02.039Z,95.99
2023-04-14T07:37:04.719Z,95.99
2023-04-14T07:38:07.075Z,96.14
2023-04-14T07:39:10.648Z,96.08
2023-04-14T07:40:12.507Z,95.25
2023-04-14T07:41:14.056Z,94.65
2023-04-14T07:42:16.110Z,94.31
2023-04-14T07:43:18.982Z,94.00
2023-04-14T07:44:26.055Z,93.91
2023-04-14T07:45:27.666Z,93.31
2023-04-14T07:46:30.962Z,93.07
2023-04-14T07:47:32.983Z,92.88
2023-04-14T07:48:36.097Z,92.82
2023-04-14T07:49:37.899Z,92.72
2023-04-14T07:50:40.020Z,92.31
2023-04-14T07:51:41.649Z,92.21
2023-04-14T07:52:43.421Z,92.08
2023-04-14T07:53:46.787Z,91.38
2023-04-14T07:54:48.538Z,90.95
2023-04-14T07:55:54.020Z,90.16
2023-04-14T07:56:59.817Z,90.07
2023-04-14T07:58:01.715Z,89.67
2023-04-14T07:59:03.556Z,89.56
2023-04-14T08:00:06.314Z,89.24
2023-04-14T08:01:14.644Z,88.97
2023-04-14T08:02:16.427Z,89.02
2023-04-14T08:03:18.973Z,88.96
2023-04-14T08:04:21.421Z,89.20
2023-04-14T08:05:25.025Z,88.75
2023-04-14T08:06:30.120Z,87.77
2023-04-14T08:07:32.421Z,87.49
2023-04-14T08:08:37.544Z,87.22
2023-04-14T08:09:39.488Z,87.47
2023-04-14T08:10:43.073Z,87.49
2023-04-14T08:11:46.984Z,86.05
2023-04-14T08:12:48.493Z,86.40
2023-04-14T08:13:50.384Z,85.54
2023-04-14T08:15:01.898Z,85.11
2023-04-14T08:16:06.257Z,84.85
2023-04-14T08:17:07.807Z,84.84
2023-04-14T08:18:12.147Z,84.33
2023-04-14T08:19:13.728Z,82.60
2023-04-14T08:20:16.236Z,81.36
2023-04-14T08:21:18.394Z,80.79
2023-04-14T08:22:19.853Z,81.70
2023-04-14T08:23:22.548Z,80.93
2023-04-14T08:24:23.992Z,81.07
2023-04-14T08:25:25.696Z,79.92
2023-04-14T08:26:30.538Z,79.70
2023-04-14T08:27:33.192Z,79.28
2023-04-14T08:28:34.850Z,79.91
2023-04-14T08:29:36.323Z,79.88
2023-04-14T08:30:37.950Z,80.25
2023-04-14T08:31:39.642Z,79.58
2023-04-14T08:32:41.539Z,78.16
2023-04-14T08:33:46.089Z,78.37
2023-04-14T08:35:36.973Z,78.96
2023-04-14T08:36:11.491Z,79.38
2023-04-14T08:37:15.989Z,79.50
2023-04-14T08:38:17.555Z,79.57
2023-04-14T08:39:19.360Z,79.72
2023-04-14T08:40:22.241Z,79.46
2023-04-14T08:41:24.376Z,79.28
2023-04-14T08:42:26.237Z,79.12
2023-04-14T08:43:29.517Z,79.00
2023-04-14T08:44:33.810Z,79.49
2023-04-14T08:45:36.789Z,79.70
2023-04-14T08:46:38.890Z,79.62
2023-04-14T08:47:41.187Z,79.63
2023-04-14T08:48:46.521Z,79.39
2023-04-14T08:50:03.614Z,79.24
2023-04-14T08:51:13.914Z,80.04
2023-04-14T08:52:16.293Z,79.96
2023-04-14T08:53:21.020Z,80.35
2023-04-14T08:54:22.627Z,80.82
2023-04-14T08:55:25.463Z,80.58
2023-04-14T08:56:38.581Z,80.00
2023-04-14T08:57:41.280Z,80.14
2023-04-14T08:58:43.136Z,80.41
2023-04-14T08:59:48.111Z,79.58
2023-04-14T09:00:50.509Z,79.09
2023-04-14T09:01:52.849Z,78.05
2023-04-14T09:02:58.238Z,77.51
2023-04-14T09:04:01.318Z,76.99
2023-04-14T09:05:03.775Z,76.52
2023-04-14T09:06:06.514Z,77.10
2023-04-14T09:07:08.467Z,76.72
2023-04-14T09:08:10.582Z,77.16
2023-04-14T09:09:12.389Z,77.75
2023-04-14T09:10:16.090Z,78.18
2023-04-14T09:11:17.523Z,78.49
2023-04-14T09:12:21.037Z,77.60
2023-04-14T09:13:23.593Z,78.22
2023-04-14T09:14:26.414Z,78.46
2023-04-14T09:15:31.297Z,77.65
2023-04-14T09:16:33.552Z,77.48
2023-04-14T09:17:36.740Z,77.64
2023-04-14T09:18:40.346Z,77.15
2023-04-14T09:20:37.508Z,77.37
2023-04-14T09:21:29.198Z,77.34
2023-04-14T09:22:27.409Z,77.14
2023-04-14T09:23:29.686Z,76.97
2023-04-14T09:24:34.224Z,77.50
2023-04-14T09:25:36.661Z,77.73
2023-04-14T09:26:43.028Z,77.81
2023-04-14T09:27:46.279Z,77.58
2023-04-14T09:28:47.791Z,77.98
2023-04-14T09:29:54.104Z,77.07
2023-04-14T09:30:56.958Z,76.59
2023-04-14T09:32:04.845Z,76.27
2023-04-14T09:34:23.817Z,76.94
2023-04-14T09:36:05.020Z,76.97
2023-04-14T09:37:08.564Z,76.00
2023-04-14T09:38:10.551Z,76.08
2023-04-14T09:39:18.217Z,76.54
2023-04-14T09:40:29.683Z,76.45
2023-04-14T09:41:32.562Z,76.65
2023-04-14T09:42:40.739Z,76.66
2023-04-14T09:43:42.400Z,75.80
2023-04-14T09:44:57.890Z,75.42
2023-04-14T09:46:07.572Z,75.40
2023-04-14T09:47:09.662Z,75.08
2023-04-14T09:48:14.543Z,74.11
2023-04-14T09:49:16.311Z,75.09
2023-04-14T09:50:17.867Z,74.64
2023-04-14T09:51:37.474Z,74.20
2023-04-14T09:52:40.188Z,74.41
2023-04-14T09:53:42.138Z,74.66
2023-04-14T09:54:47.282Z,74.79
2023-04-14T09:55:50.717Z,74.34
2023-04-14T09:56:55.908Z,73.97
2023-04-14T09:57:58.005Z,72.81
2023-04-14T09:59:03.747Z,72.95
2023-04-14T10:00:18.732Z,71.53
2023-04-14T10:01:33.891Z,71.93
2023-04-14T10:02:47.513Z,72.77
2023-04-14T10:03:50.017Z,73.52
2023-04-14T10:05:03.616Z,73.53
2023-04-14T10:06:22.255Z,72.29
2023-04-14T10:07:27.291Z,72.20
2023-04-14T10:08:37.116Z,71.43
2023-04-14T10:09:39.017Z,71.90
2023-04-14T10:10:41.174Z,72.35
2023-04-14T10:11:42.678Z,72.38
2023-04-14T10:12:46.132Z,71.73
2023-04-14T10:13:48.563Z,72.96
2023-04-14T10:14:52.746Z,72.28
2023-04-14T10:15:54.605Z,72.20
2023-04-14T10:16:56.615Z,71.70
2023-04-14T10:17:58.325Z,71.35
2023-04-14T10:19:00.497Z,71.58
2023-04-14T10:20:02.415Z,72.07
2023-04-14T10:21:04.944Z,72.33
2023-04-14T10:22:06.772Z,72.53
2023-04-14T10:23:08.943Z,72.26
2023-04-14T10:24:16.290Z,72.09
2023-04-14T10:25:21.479Z,72.76
2023-04-14T10:26:27.434Z,72.88
2023-04-14T10:27:47.272Z,73.48
2023-04-14T10:28:53.207Z,73.29
2023-04-14T10:32:20.507Z,72.16
2023-04-14T10:33:37.976Z,72.71
2023-04-14T10:34:57.525Z,71.83
2023-04-14T10:36:12.545Z,73.30
2023-04-14T10:37:26.944Z,72.89
2023-04-14T10:38:39.795Z,71.45
2023-04-14T10:39:43.108Z,71.69
2023-04-14T10:40:47.211Z,71.55
2023-04-14T10:41:51.212Z,71.30
2023-04-14T10:42:55.100Z,71.71
2023-04-14T10:43:56.693Z,71.04
2023-04-14T10:45:09.504Z,70.40
2023-04-14T10:46:11.347Z,70.79
2023-04-14T10:47:24.858Z,70.68
2023-04-14T10:48:29.754Z,70.85
2023-04-14T10:49:31.468Z,70.86
2023-04-14T10:50:46.501Z,71.66
2023-04-14T10:51:52.664Z,70.83
2023-04-14T10:52:56.245Z,69.98
2023-04-14T10:53:58.152Z,69.92
2023-04-14T10:55:09.874Z,70.23
2023-04-14T10:56:11.447Z,69.96
2023-04-14T10:57:24.022Z,68.77
2023-04-14T10:58:29.632Z,68.46
2023-04-14T10:59:31.927Z,68.01
2023-04-14T11:00:37.926Z,68.03
2023-04-14T11:02:07.908Z,68.45
2023-04-14T11:03:20.365Z,68.30
2023-04-14T11:04:32.234Z,68.21
2023-04-14T11:05:39.864Z,68.23
2023-04-14T11:06:47.568Z,67.97
2023-04-14T11:07:56.166Z,68.01
2023-04-14T11:09:20.849Z,68.99
2023-04-14T11:10:28.613Z,69.00
2023-04-14T11:11:35.625Z,69.81
2023-04-14T11:12:51.145Z,69.71
2023-04-14T11:14:11.036Z,69.56
2023-04-14T11:15:13.006Z,69.93
2023-04-14T11:16:31.709Z,69.30
2023-04-14T11:17:37.689Z,69.51
2023-04-14T11:18:48.180Z,70.13
2023-04-14T11:19:55.568Z,70.01
2023-04-14T11:21:04.478Z,70.04
2023-04-14T11:22:06.132Z,69.90
2023-04-14T11:23:07.875Z,69.73
2023-04-14T11:24:10.555Z,69.18
2023-04-14T11:25:15.509Z,69.17
2023-04-14T11:26:17.325Z,70.05
2023-04-14T11:27:19.874Z,69.92
2023-04-14T11:28:31.975Z,69.18
2023-04-14T11:29:34.602Z,69.29
2023-04-14T11:30:36.533Z,68.38
2023-04-14T11:31:41.356Z,67.98
2023-04-14T11:32:47.807Z,68.89
2023-04-14T11:33:49.841Z,68.54
2023-04-14T11:34:51.651Z,69.00
2023-04-14T11:35:53.638Z,69.32
2023-04-14T11:36:57.547Z,68.64
2023-04-14T11:38:00.443Z,68.26
2023-04-14T11:39:03.585Z,67.25
2023-04-14T11:40:09.779Z,67.42
2023-04-14T11:41:14.972Z,68.50
2023-04-14T11:42:16.565Z,68.18
2023-04-14T11:43:22.177Z,68.91
2023-04-14T11:44:25.464Z,68.53
2023-04-14T11:45:28.374Z,68.49
2023-04-14T11:46:30.052Z,67.92
2023-04-14T11:47:32.038Z,68.31
2023-04-14T11:48:33.651Z,68.61
2023-04-14T11:49:37.784Z,68.79
2023-04-14T11:50:39.504Z,69.26
2023-04-14T11:51:41.157Z,68.93
2023-04-14T11:52:48.820Z,68.70
2023-04-14T11:53:51.375Z,68.36
2023-04-14T11:54:53.394Z,68.25
2023-04-14T11:55:55.167Z,68.49
2023-04-14T11:56:56.649Z,68.80
2023-04-14T11:57:59.594Z,68.16
2023-04-14T11:59:05.114Z,67.50
2023-04-14T12:00:11.756Z,67.59
2023-04-14T12:01:15.177Z,68.04
2023-04-14T12:02:21.744Z,68.56
2023-04-14T12:03:31.662Z,68.76
2023-04-14T12:04:33.444Z,69.29
2023-04-14T12:05:36.900Z,69.78
2023-04-14T12:06:39.913Z,69.40
2023-04-14T12:07:42.847Z,69.29
2023-04-14T12:08:51.231Z,69.09
2023-04-14T12:09:53.923Z,69.76
2023-04-14T12:10:57.349Z,70.13
2023-04-14T12:11:58.774Z,69.74
2023-04-14T12:13:06.982Z,70.09
2023-04-14T12:14:09.001Z,69.55
2023-04-14T12:15:11.483Z,69.59
2023-04-14T12:16:13.768Z,69.80
2023-04-14T12:17:16.829Z,69.70
2023-04-14T12:19:21.050Z,70.13
2023-04-14T12:20:22.721Z,70.13
2023-04-14T12:21:24.805Z,70.13
2023-04-14T12:22:27.718Z,70.56
2023-04-14T12:23:29.570Z,69.84
2023-04-14T12:24:35.775Z,69.67
2023-04-14T12:25:37.413Z,69.77
2023-04-14T12:26:38.973Z,69.62
2023-04-14T12:27:51.027Z,69.31
2023-04-14T12:29:20.877Z,69.37
2023-04-14T12:30:26.642Z,69.33
2023-04-14T12:31:32.757Z,69.69
2023-04-14T12:32:42.279Z,69.30
2023-04-14T12:33:48.210Z,68.85
2023-04-14T12:34:57.906Z,68.90
2023-04-14T12:36:12.164Z,68.92
2023-04-14T12:37:14.556Z,68.62
2023-04-14T12:38:20.439Z,68.34
2023-04-14T12:39:33.068Z,68.27
2023-04-14T12:40:40.862Z,68.49
2023-04-14T12:41:42.675Z,67.51
2023-04-14T12:42:59.665Z,67.95
2023-04-14T12:44:01.292Z,66.97
2023-04-14T12:45:06.083Z,67.76
2023-04-14T12:46:12.919Z,67.63
2023-04-14T12:47:35.465Z,67.15
2023-04-14T12:50:00.630Z,66.34
2023-04-14T12:51:20.546Z,66.97
2023-04-14T12:52:40.717Z,67.54
2023-04-14T12:53:51.322Z,67.05
2023-04-14T12:54:53.094Z,67.71
2023-04-14T12:56:16.450Z,67.80
2023-04-14T12:57:21.912Z,67.89
2023-04-14T12:58:31.485Z,68.49
2023-04-14T12:59:43.350Z,68.38
2023-04-14T13:00:51.093Z,69.14
2023-04-14T13:03:23.098Z,69.17
2023-04-14T13:04:27.604Z,69.13
2023-04-14T13:05:32.085Z,69.46
2023-04-14T13:06:36.791Z,70.43
2023-04-14T13:07:46.286Z,70.25
2023-04-14T13:08:56.843Z,69.80
2023-04-14T13:10:02.499Z,69.54
2023-04-14T13:11:11.889Z,70.17
2023-04-14T13:12:31.510Z,70.39
2023-04-14T13:13:36.668Z,70.01
2023-04-14T13:14:43.866Z,69.50
2023-04-14T13:16:14.849Z,69.31
2023-04-14T13:17:08.763Z,69.82
2023-04-14T13:18:15.878Z,69.45
2023-04-14T13:19:20.003Z,69.42
2023-04-14T13:20:22.012Z,69.66
2023-04-14T13:21:27.494Z,69.98
2023-04-14T13:22:30.852Z,70.02
2023-04-14T13:23:32.765Z,69.30
2023-04-14T13:24:37.207Z,68.99
2023-04-14T13:25:42.233Z,68.67
2023-04-14T13:26:46.411Z,69.11
2023-04-14T13:27:49.580Z,69.12
2023-04-14T13:28:55.200Z,68.92
2023-04-14T13:29:58.550Z,69.53
2023-04-14T13:31:01.053Z,69.70
2023-04-14T13:32:02.643Z,69.66
2023-04-14T13:33:05.260Z,69.54
2023-04-14T13:34:06.830Z,68.84
2023-04-14T13:35:09.555Z,68.90
2023-04-14T13:36:11.197Z,69.06
2023-04-14T13:37:12.812Z,69.11
2023-04-14T13:38:16.031Z,69.01
2023-04-14T13:39:17.621Z,69.62
2023-04-14T13:40:21.707Z,69.44
2023-04-14T13:41:23.588Z,69.27
2023-04-14T13:42:27.686Z,69.70
2023-04-14T13:43:30.001Z,69.74
2023-04-14T13:44:32.469Z,70.32
2023-04-14T13:45:35.465Z,70.58
2023-04-14T13:46:41.303Z,69.90
2023-04-14T13:47:47.311Z,70.97
2023-04-14T13:48:49.683Z,70.47
2023-04-14T13:49:51.324Z,69.73
2023-04-14T13:50:54.569Z,70.00
2023-04-14T13:51:56.036Z,69.58
2023-04-14T13:52:58.963Z,69.86
2023-04-14T13:54:00.801Z,69.19
2023-04-14T13:55:02.648Z,70.18
2023-04-14T13:56:04.663Z,70.40
2023-04-14T13:57:06.495Z,69.96
2023-04-14T13:58:08.181Z,69.85
2023-04-14T13:59:18.814Z,70.22
2023-04-14T14:00:26.974Z,70.26
2023-04-14T14:01:30.997Z,69.51
2023-04-14T14:02:33.478Z,69.24
2023-04-14T14:03:41.921Z,69.73
2023-04-14T14:04:52.533Z,69.62
2023-04-14T14:05:57.182Z,69.43
2023-04-14T14:07:02.947Z,68.94
2023-04-14T14:08:09.896Z,67.55
2023-04-14T14:09:21.957Z,68.70